Ag Nektarios Aiginas — SX7083 — position and weather

sailwx.info

Track history (hours):
 
Tides and Currents Weather Stations Pressure Air Temp Water Temp Dewpoint Dewpoint Depression Visibility Wind Speed Wind Dir Waves Ship Positions

Ag Nektarios Aiginas

Last reported at 2017-May-23 16:53 UTC. Time now 2017-May-23 17:06 UTC.
Position N 37°57' E 023°38'.

Length 75 m; draft 2.7 m.

Type: Passenger vessel. MMSI: 237021400.

Date/timePositionNaut miles runAvg speedWind from/ knotsBaromVisibWave heightAir tempDewpointWater temp
2017-May-23 16:53N 37°57' E 023°38'1 3.7
2017-May-23 16:30N 37°56' E 023°37'713.2
2017-May-23 16:00N 37°51' E 023°32'713.3
2017-May-23 15:30N 37°46' E 023°25'2 2.4
2017-May-23 14:47N 37°45' E 023°25'2 5.1
2017-May-23 14:29N 37°46' E 023°25'1212.6
2017-May-23 13:30N 37°55' E 023°36'3 5.2
2017-May-23 13:00N 37°57' E 023°39'2 3.3
2017-May-23 12:30N 37°56' E 023°37'713.0
2017-May-23 12:00N 37°51' E 023°32'713.2
2017-May-23 11:30N 37°46' E 023°25'2 3.3
2017-May-23 11:00N 37°45' E 023°25'2 3.4
2017-May-23 10:30N 37°46' E 023°25'612.8
2017-May-23 10:00N 37°50' E 023°32'612.7
2017-May-23 09:30N 37°55' E 023°36'2 4.3
2017-May-23 09:00N 37°57' E 023°39'2 4.0
2017-May-23 08:30N 37°55' E 023°37'713.0
2017-May-23 08:00N 37°50' E 023°32'613.0
2017-May-23 07:30N 37°46' E 023°25'2 3.2
2017-May-23 07:00N 37°45' E 023°25'2 4.8
2017-May-23 06:30N 37°47' E 023°26'612.6
2017-May-23 06:00N 37°51' E 023°33'612.8
2017-May-23 05:31N 37°56' E 023°37'1 2.3
2017-May-23 05:00N 37°57' E 023°38'0 0.0
2017-May-23 04:30N 37°57' E 023°38'0 0.0
2017-May-22 16:54N 37°57' E 023°38'1 3.4
2017-May-22 16:30N 37°56' E 023°37'713.2
2017-May-22 16:01N 37°51' E 023°32'713.1
2017-May-22 15:30N 37°46' E 023°26'2 3.4
2017-May-22 15:00N 37°45' E 023°26'7 6.8
2017-May-22 14:00N 37°50' E 023°31'612.5
2017-May-22 13:30N 37°55' E 023°36'3 5.4
2017-May-22 13:00N 37°57' E 023°39'1 2.9
2017-May-22 12:30N 37°56' E 023°37'713.1
2017-May-22 12:01N 37°51' E 023°32'713.0
2017-May-22 11:31N 37°47' E 023°26'2 3.8
2017-May-22 11:00N 37°45' E 023°25'2 3.8
2017-May-22 10:30N 37°47' E 023°26'612.8
2017-May-22 10:00N 37°51' E 023°32'612.8
2017-May-22 09:31N 37°56' E 023°37'2 3.2
2017-May-22 09:01N 37°57' E 023°39'4 8.5
2017-May-22 08:30N 37°54' E 023°35'612.6
2017-May-22 08:00N 37°49' E 023°29'510.1
2017-May-22 07:29N 37°45' E 023°25'0 0.3
2017-May-22 07:00N 37°45' E 023°25'3 6.3
2017-May-22 06:30N 37°48' E 023°27'612.6
2017-May-22 06:00N 37°52' E 023°33'612.2
2017-May-22 05:30N 37°56' E 023°38'0 0.9
2017-May-22 05:00N 37°57' E 023°38'0 0.0
2017-May-22 04:31N 37°57' E 023°38'0 0.0
2017-May-21 17:35N 37°57' E 023°38'0 0.0
2017-May-21 17:30N 37°57' E 023°38'2 3.9
2017-May-21 17:00N 37°56' E 023°37'612.6
2017-May-21 16:30N 37°50' E 023°32'612.8
2017-May-21 16:00N 37°47' E 023°25'2 3.6
2017-May-21 15:30N 37°45' E 023°25'0 0.0
2017-May-21 15:00N 37°45' E 023°25'7 7.3
2017-May-21 14:01N 37°50' E 023°31'612.7
2017-May-21 13:30N 37°55' E 023°36'2 4.2
2017-May-21 13:01N 37°57' E 023°39'2 3.9
2017-May-21 12:30N 37°56' E 023°36'713.0
2017-May-21 12:00N 37°51' E 023°31'713.0
2017-May-21 11:30N 37°46' E 023°25'2 3.3
2017-May-21 11:00N 37°45' E 023°25'2 3.6
2017-May-21 10:30N 37°47' E 023°26'612.6
2017-May-21 10:00N 37°50' E 023°32'612.7
2017-May-21 09:30N 37°56' E 023°37'2 3.6
2017-May-21 09:00N 37°57' E 023°39'4 8.2
2017-May-21 08:30N 37°54' E 023°35'612.8
2017-May-21 08:00N 37°49' E 023°29'510.9
2017-May-21 07:30N 37°45' E 023°25'0 0.1
2017-May-21 07:00N 37°45' E 023°25'611.2
2017-May-21 06:30N 37°49' E 023°30'612.6
2017-May-21 06:00N 37°53' E 023°35'4 8.2
2017-May-21 05:30N 37°57' E 023°38'0 0.0
2017-May-21 05:00N 37°57' E 023°38'0 0.0
2017-May-21 04:30N 37°57' E 023°38'0 0.0
2017-May-20 16:59N 37°57' E 023°38'2 3.6
2017-May-20 16:31N 37°56' E 023°37'612.9
2017-May-20 16:00N 37°50' E 023°32'612.9
2017-May-20 15:30N 37°47' E 023°25'2 3.6
2017-May-20 15:00N 37°45' E 023°26'2 3.3
2017-May-20 14:30N 37°46' E 023°26'1212.4
2017-May-20 13:30N 37°55' E 023°36'2 4.2
2017-May-20 13:00N 37°57' E 023°39'511.0
2017-May-20 12:30N 37°53' E 023°34'613.0
2017-May-20 12:00N 37°48' E 023°28'4 7.8
2017-May-20 11:30N 37°45' E 023°26'1 2.1
2017-May-20 11:00N 37°46' E 023°25'612.7
2017-May-20 10:30N 37°50' E 023°31'612.8
2017-May-20 10:00N 37°55' E 023°36'3 5.7
2017-May-20 09:30N 37°57' E 023°39'1 2.2
2017-May-20 09:00N 37°56' E 023°37'612.5
2017-May-20 08:30N 37°51' E 023°32'612.7
2017-May-20 08:00N 37°47' E 023°26'2 3.1
2017-May-20 07:13N 37°45' E 023°26'1 4.2
2017-May-20 07:00N 37°45' E 023°25'612.1
2017-May-20 06:30N 37°49' E 023°30'612.6
2017-May-20 06:00N 37°54' E 023°35'3 6.8
2017-May-20 05:30N 37°57' E 023°39'0 0.0
2017-May-20 05:00N 37°57' E 023°39'0 0.0
2017-May-20 04:30N 37°57' E 023°39'  
2017-May-15 17:27N 37°57' E 023°39'0 0.0
2017-May-15 17:00N 37°57' E 023°39'510.0
2017-May-15 16:30N 37°53' E 023°34'612.8
2017-May-15 16:00N 37°48' E 023°29'4 6.6
2017-May-15 15:20N 37°45' E 023°25'0 0.0
2017-May-15 14:55N 37°45' E 023°25'9 9.5
2017-May-15 14:00N 37°51' E 023°32'612.6
2017-May-15 13:30N 37°56' E 023°37'1 1.9
2017-May-15 13:00N 37°57' E 023°39'2 3.9
2017-May-15 12:30N 37°56' E 023°36'613.0
2017-May-15 12:01N 37°50' E 023°31'612.9
2017-May-15 11:31N 37°46' E 023°25'2 3.2
2017-May-15 11:00N 37°45' E 023°25'2 3.3
2017-May-15 10:29N 37°46' E 023°26'712.7
2017-May-15 09:58N 37°51' E 023°32'612.7
2017-May-15 09:31N 37°55' E 023°36'2 4.2
2017-May-15 08:59N 37°57' E 023°38'2 5.0
2017-May-15 08:30N 37°55' E 023°36'612.8
2017-May-15 08:00N 37°50' E 023°31'612.9
2017-May-15 07:30N 37°46' E 023°25'1 2.8
2017-May-15 07:00N 37°45' E 023°25'3 5.3
2017-May-15 06:30N 37°47' E 023°27'612.7
2017-May-15 06:00N 37°51' E 023°33'612.6
2017-May-15 05:30N 37°56' E 023°38'1 1.5
2017-May-15 05:01N 37°57' E 023°38'0 0.0
2017-May-15 04:30N 37°57' E 023°38'0 0.0
2017-May-14 17:08N 37°57' E 023°38'0 0.0
2017-May-14 17:01N 37°57' E 023°38'3 6.7
2017-May-14 16:31N 37°54' E 023°35'613.0
2017-May-14 16:01N 37°49' E 023°30'611.9
2017-May-14 15:30N 37°45' E 023°25'1 1.3
2017-May-14 15:01N 37°45' E 023°25'1 2.6
2017-May-14 14:30N 37°46' E 023°25'1312.7
2017-May-14 13:31N 37°55' E 023°36'3 5.1
2017-May-14 13:01N 37°57' E 023°39'2 3.0
2017-May-14 12:31N 37°56' E 023°37'713.2
2017-May-14 12:00N 37°51' E 023°32'612.9
2017-May-14 11:31N 37°47' E 023°25'2 3.7
2017-May-14 11:00N 37°45' E 023°26'2 3.2
2017-May-14 10:30N 37°46' E 023°25'612.7
2017-May-14 10:01N 37°50' E 023°31'612.5
2017-May-14 09:31N 37°55' E 023°36'2 4.5
2017-May-14 09:01N 37°57' E 023°39'2 4.1
2017-May-14 08:31N 37°55' E 023°36'713.0
2017-May-14 08:01N 37°50' E 023°31'612.8
2017-May-14 07:31N 37°46' E 023°25'2 3.0
2017-May-14 07:00N 37°45' E 023°25'4 8.3
2017-May-14 06:31N 37°48' E 023°28'612.6
2017-May-14 06:00N 37°53' E 023°34'510.6
2017-May-14 05:30N 37°57' E 023°38'0 0.0
2017-May-14 05:00N 37°57' E 023°38'0 0.0
2017-May-14 04:30N 37°57' E 023°38'0 0.0
2017-May-13 16:58N 37°57' E 023°38'  
Track history (hours):
 
Tides and Currents Weather Stations Pressure Air Temp Water Temp Dewpoint Dewpoint Depression Visibility Wind Speed Wind Dir Waves Ship Positions

Ag Nektarios Aiginas

Last reported at 2017-May-23 16:53 UTC. Time now 2017-May-23 17:06 UTC.
Position N 37°57' E 023°38'.

Length 75 m; draft 2.7 m.

Type: Passenger vessel. MMSI: 237021400.

Date/timePositionNaut miles runAvg speedWind from/ knotsBaromVisibWave heightAir tempDewpointWater temp
2017-May-23 16:53N 37°57' E 023°38'1 3.7
2017-May-23 16:30N 37°56' E 023°37'713.2
2017-May-23 16:00N 37°51' E 023°32'713.3
2017-May-23 15:30N 37°46' E 023°25'2 2.4
2017-May-23 14:47N 37°45' E 023°25'2 5.1
2017-May-23 14:29N 37°46' E 023°25'1212.6
2017-May-23 13:30N 37°55' E 023°36'3 5.2
2017-May-23 13:00N 37°57' E 023°39'2 3.3
2017-May-23 12:30N 37°56' E 023°37'713.0
2017-May-23 12:00N 37°51' E 023°32'713.2
2017-May-23 11:30N 37°46' E 023°25'2 3.3
2017-May-23 11:00N 37°45' E 023°25'2 3.4
2017-May-23 10:30N 37°46' E 023°25'612.8
2017-May-23 10:00N 37°50' E 023°32'612.7
2017-May-23 09:30N 37°55' E 023°36'2 4.3
2017-May-23 09:00N 37°57' E 023°39'2 4.0
2017-May-23 08:30N 37°55' E 023°37'713.0
2017-May-23 08:00N 37°50' E 023°32'613.0
2017-May-23 07:30N 37°46' E 023°25'2 3.2
2017-May-23 07:00N 37°45' E 023°25'2 4.8
2017-May-23 06:30N 37°47' E 023°26'612.6
2017-May-23 06:00N 37°51' E 023°33'612.8
2017-May-23 05:31N 37°56' E 023°37'1 2.3
2017-May-23 05:00N 37°57' E 023°38'0 0.0
2017-May-23 04:30N 37°57' E 023°38'0 0.0
2017-May-22 16:54N 37°57' E 023°38'1 3.4
2017-May-22 16:30N 37°56' E 023°37'713.2
2017-May-22 16:01N 37°51' E 023°32'713.1
2017-May-22 15:30N 37°46' E 023°26'2 3.4
2017-May-22 15:00N 37°45' E 023°26'7 6.8
2017-May-22 14:00N 37°50' E 023°31'612.5
2017-May-22 13:30N 37°55' E 023°36'3 5.4
2017-May-22 13:00N 37°57' E 023°39'1 2.9
2017-May-22 12:30N 37°56' E 023°37'713.1
2017-May-22 12:01N 37°51' E 023°32'713.0
2017-May-22 11:31N 37°47' E 023°26'2 3.8
2017-May-22 11:00N 37°45' E 023°25'2 3.8
2017-May-22 10:30N 37°47' E 023°26'612.8
2017-May-22 10:00N 37°51' E 023°32'612.8
2017-May-22 09:31N 37°56' E 023°37'2 3.2
2017-May-22 09:01N 37°57' E 023°39'4 8.5
2017-May-22 08:30N 37°54' E 023°35'612.6
2017-May-22 08:00N 37°49' E 023°29'510.1
2017-May-22 07:29N 37°45' E 023°25'0 0.3
2017-May-22 07:00N 37°45' E 023°25'3 6.3
2017-May-22 06:30N 37°48' E 023°27'612.6
2017-May-22 06:00N 37°52' E 023°33'612.2
2017-May-22 05:30N 37°56' E 023°38'0 0.9
2017-May-22 05:00N 37°57' E 023°38'0 0.0
2017-May-22 04:31N 37°57' E 023°38'0 0.0
2017-May-21 17:35N 37°57' E 023°38'0 0.0
2017-May-21 17:30N 37°57' E 023°38'2 3.9
2017-May-21 17:00N 37°56' E 023°37'612.6
2017-May-21 16:30N 37°50' E 023°32'612.8
2017-May-21 16:00N 37°47' E 023°25'2 3.6
2017-May-21 15:30N 37°45' E 023°25'0 0.0
2017-May-21 15:00N 37°45' E 023°25'7 7.3
2017-May-21 14:01N 37°50' E 023°31'612.7
2017-May-21 13:30N 37°55' E 023°36'2 4.2
2017-May-21 13:01N 37°57' E 023°39'2 3.9
2017-May-21 12:30N 37°56' E 023°36'713.0
2017-May-21 12:00N 37°51' E 023°31'713.0
2017-May-21 11:30N 37°46' E 023°25'2 3.3
2017-May-21 11:00N 37°45' E 023°25'2 3.6
2017-May-21 10:30N 37°47' E 023°26'612.6
2017-May-21 10:00N 37°50' E 023°32'612.7
2017-May-21 09:30N 37°56' E 023°37'2 3.6
2017-May-21 09:00N 37°57' E 023°39'4 8.2
2017-May-21 08:30N 37°54' E 023°35'612.8
2017-May-21 08:00N 37°49' E 023°29'510.9
2017-May-21 07:30N 37°45' E 023°25'0 0.1
2017-May-21 07:00N 37°45' E 023°25'611.2
2017-May-21 06:30N 37°49' E 023°30'612.6
2017-May-21 06:00N 37°53' E 023°35'4 8.2
2017-May-21 05:30N 37°57' E 023°38'0 0.0
2017-May-21 05:00N 37°57' E 023°38'0 0.0
2017-May-21 04:30N 37°57' E 023°38'0 0.0
2017-May-20 16:59N 37°57' E 023°38'2 3.6
2017-May-20 16:31N 37°56' E 023°37'612.9
2017-May-20 16:00N 37°50' E 023°32'612.9
2017-May-20 15:30N 37°47' E 023°25'2 3.6
2017-May-20 15:00N 37°45' E 023°26'2 3.3
2017-May-20 14:30N 37°46' E 023°26'1212.4
2017-May-20 13:30N 37°55' E 023°36'2 4.2
2017-May-20 13:00N 37°57' E 023°39'511.0
2017-May-20 12:30N 37°53' E 023°34'613.0
2017-May-20 12:00N 37°48' E 023°28'4 7.8
2017-May-20 11:30N 37°45' E 023°26'1 2.1
2017-May-20 11:00N 37°46' E 023°25'612.7
2017-May-20 10:30N 37°50' E 023°31'612.8
2017-May-20 10:00N 37°55' E 023°36'3 5.7
2017-May-20 09:30N 37°57' E 023°39'1 2.2
2017-May-20 09:00N 37°56' E 023°37'612.5
2017-May-20 08:30N 37°51' E 023°32'612.7
2017-May-20 08:00N 37°47' E 023°26'2 3.1
2017-May-20 07:13N 37°45' E 023°26'1 4.2
2017-May-20 07:00N 37°45' E 023°25'612.1
2017-May-20 06:30N 37°49' E 023°30'612.6
2017-May-20 06:00N 37°54' E 023°35'3 6.8
2017-May-20 05:30N 37°57' E 023°39'0 0.0
2017-May-20 05:00N 37°57' E 023°39'0 0.0
2017-May-20 04:30N 37°57' E 023°39'  
2017-May-15 17:27N 37°57' E 023°39'0 0.0
2017-May-15 17:00N 37°57' E 023°39'510.0
2017-May-15 16:30N 37°53' E 023°34'612.8
2017-May-15 16:00N 37°48' E 023°29'4 6.6
2017-May-15 15:20N 37°45' E 023°25'0 0.0
2017-May-15 14:55N 37°45' E 023°25'9 9.5
2017-May-15 14:00N 37°51' E 023°32'612.6
2017-May-15 13:30N 37°56' E 023°37'1 1.9
2017-May-15 13:00N 37°57' E 023°39'2 3.9
2017-May-15 12:30N 37°56' E 023°36'613.0
2017-May-15 12:01N 37°50' E 023°31'612.9
2017-May-15 11:31N 37°46' E 023°25'2 3.2
2017-May-15 11:00N 37°45' E 023°25'2 3.3
2017-May-15 10:29N 37°46' E 023°26'712.7
2017-May-15 09:58N 37°51' E 023°32'612.7
2017-May-15 09:31N 37°55' E 023°36'2 4.2
2017-May-15 08:59N 37°57' E 023°38'2 5.0
2017-May-15 08:30N 37°55' E 023°36'612.8
2017-May-15 08:00N 37°50' E 023°31'612.9
2017-May-15 07:30N 37°46' E 023°25'1 2.8
2017-May-15 07:00N 37°45' E 023°25'3 5.3
2017-May-15 06:30N 37°47' E 023°27'612.7
2017-May-15 06:00N 37°51' E 023°33'612.6
2017-May-15 05:30N 37°56' E 023°38'1 1.5
2017-May-15 05:01N 37°57' E 023°38'0 0.0
2017-May-15 04:30N 37°57' E 023°38'0 0.0
2017-May-14 17:08N 37°57' E 023°38'0 0.0
2017-May-14 17:01N 37°57' E 023°38'3 6.7
2017-May-14 16:31N 37°54' E 023°35'613.0
2017-May-14 16:01N 37°49' E 023°30'611.9
2017-May-14 15:30N 37°45' E 023°25'1 1.3
2017-May-14 15:01N 37°45' E 023°25'1 2.6
2017-May-14 14:30N 37°46' E 023°25'1312.7
2017-May-14 13:31N 37°55' E 023°36'3 5.1
2017-May-14 13:01N 37°57' E 023°39'2 3.0
2017-May-14 12:31N 37°56' E 023°37'713.2
2017-May-14 12:00N 37°51' E 023°32'612.9
2017-May-14 11:31N 37°47' E 023°25'2 3.7
2017-May-14 11:00N 37°45' E 023°26'2 3.2
2017-May-14 10:30N 37°46' E 023°25'612.7
2017-May-14 10:01N 37°50' E 023°31'612.5
2017-May-14 09:31N 37°55' E 023°36'2 4.5
2017-May-14 09:01N 37°57' E 023°39'2 4.1
2017-May-14 08:31N 37°55' E 023°36'713.0
2017-May-14 08:01N 37°50' E 023°31'612.8
2017-May-14 07:31N 37°46' E 023°25'2 3.0
2017-May-14 07:00N 37°45' E 023°25'4 8.3
2017-May-14 06:31N 37°48' E 023°28'612.6
2017-May-14 06:00N 37°53' E 023°34'510.6
2017-May-14 05:30N 37°57' E 023°38'0 0.0
2017-May-14 05:00N 37°57' E 023°38'0 0.0
2017-May-14 04:30N 37°57' E 023°38'0 0.0
2017-May-13 16:58N 37°57' E 023°38'  

Dump ship's entire track history